Time;durP1;ratioP1;P1;durP2;ratioP2;P2;SDS_P1;SDS_P2;PMS_P1;PMS_P2;Temp;Humidity;BMP_temperature;BMP_pressure;BME280_temperature;BME280_humidity;BME280_pressure;Samples;Min_cycle;Max_cycle;Signal;HPM_P1;HPM_P2
2024/01/13 00:00:26;;;;;;;2.30;0.80;;;;;;;-0.29;48.40;102004.69;4914110;29;20400;-91
2024/01/13 00:02:54;;;;;;;1.73;0.90;;;;;;;-0.14;48.78;102010.13;4914128;29;20412;-92
2024/01/13 00:05:20;;;;;;;1.80;0.75;;;;;;;-0.31;48.35;102001.28;4915445;29;20411;-91
2024/01/13 00:07:49;;;;;;;2.00;0.75;;;;;;;-0.28;48.62;102003.75;4913833;29;20409;-91
2024/01/13 00:10:14;;;;;;;1.65;0.40;;;;;;;-0.42;48.37;101995.72;4913782;29;20472;-90
2024/01/13 00:12:40;;;;;;;1.73;1.17;;;;;;;-0.36;48.59;102013.69;4913820;29;20901;-90
2024/01/13 00:15:06;;;;;;;1.30;1.25;;;;;;;-0.48;48.35;101999.44;4914777;29;20400;-91
2024/01/13 00:17:35;;;;;;;0.98;0.57;;;;;;;-0.52;48.73;102000.47;4913928;29;20487;-91
2024/01/13 00:20:05;;;;;;;1.58;1.30;;;;;;;-0.56;48.77;102005.88;4913783;29;20400;-91
2024/01/13 00:22:34;;;;;;;2.13;1.10;;;;;;;-0.62;48.68;102007.00;4913808;29;20421;-89
2024/01/13 00:25:00;;;;;;;1.75;1.10;;;;;;;-0.74;48.75;102003.13;4919020;29;20402;-90
2024/01/13 00:27:26;;;;;;;1.35;0.50;;;;;;;-0.73;48.84;101998.81;4923344;29;20452;-88
2024/01/13 00:29:58;;;;;;;1.67;0.93;;;;;;;-0.64;49.21;102006.22;4926122;29;20384;-88
2024/01/13 00:32:31;;;;;;;2.10;1.20;;;;;;;-0.62;49.19;101996.56;4940166;29;20424;-88
2024/01/13 00:34:56;;;;;;;1.95;1.85;;;;;;;-0.64;49.08;102003.59;4919583;29;20408;-88
2024/01/13 00:37:32;;;;;;;1.27;0.50;;;;;;;-0.72;49.16;102003.94;4918712;29;20494;-88
2024/01/13 00:40:00;;;;;;;2.45;1.10;;;;;;;-0.65;48.98;102005.38;4920854;29;20411;-88
2024/01/13 00:42:31;;;;;;;1.63;1.52;;;;;;;-0.77;49.06;102006.72;4920715;29;20446;-88
2024/01/13 00:45:00;;;;;;;0.60;0.60;;;;;;;-0.64;49.34;102012.25;4921548;29;20489;-88
2024/01/13 00:47:33;;;;;;;0.55;0.30;;;;;;;-0.63;49.01;102015.69;4925033;29;20388;-88
2024/01/13 00:50:01;;;;;;;0.77;0.60;;;;;;;-0.62;49.04;102018.25;4932698;29;20392;-90
2024/01/13 00:52:27;;;;;;;1.55;0.60;;;;;;;-0.47;48.93;102018.50;4944452;29;20468;-90
2024/01/13 00:54:55;;;;;;;0.93;0.50;;;;;;;-0.48;48.64;102004.63;4923086;29;20475;-87
2024/01/13 00:57:25;;;;;;;1.73;1.52;;;;;;;-0.42;49.17;102013.94;4920439;29;20545;-88
2024/01/13 00:59:57;;;;;;;1.50;0.50;;;;;;;-0.36;48.62;101998.06;4920533;29;20396;-88
2024/01/13 01:02:28;;;;;;;0.60;0.60;;;;;;;-0.35;48.75;101986.72;4920234;29;20515;-90
2024/01/13 01:04:58;;;;;;;0.70;0.40;;;;;;;-0.29;48.80;102001.22;4922433;29;20765;-91
2024/01/13 01:07:32;;;;;;;0.70;0.55;;;;;;;-0.44;48.88;101998.38;4921886;29;20403;-89
2024/01/13 01:10:00;;;;;;;0.70;0.40;;;;;;;-0.23;48.81;102007.00;4920802;29;20400;-89
2024/01/13 01:12:28;;;;;;;0.77;0.70;;;;;;;-0.25;48.88;102008.84;4920101;29;20400;-89
2024/01/13 01:14:53;;;;;;;1.90;0.60;;;;;;;-0.24;48.38;102017.50;4921150;29;20415;-89
2024/01/13 01:17:22;;;;;;;0.87;0.37;;;;;;;-0.33;49.03;102015.31;4922033;29;20847;-89
2024/01/13 01:19:49;;;;;;;1.85;0.82;;;;;;;-0.33;48.83;102018.75;4920117;29;20397;-87
2024/01/13 01:22:16;;;;;;;0.85;0.60;;;;;;;-0.33;49.09;102013.53;4919936;29;20416;-88
2024/01/13 01:24:41;;;;;;;1.13;0.68;;;;;;;-0.31;48.72;102018.69;4927190;29;20903;-88
2024/01/13 01:27:07;;;;;;;0.88;0.60;;;;;;;-0.26;48.95;102016.72;4922162;29;20396;-87
2024/01/13 01:29:39;;;;;;;1.50;0.80;;;;;;;-0.31;48.49;102021.28;4919606;29;20403;-90
2024/01/13 01:32:10;;;;;;;1.50;0.90;;;;;;;-0.32;48.57;102023.06;4918480;29;20537;-90
2024/01/13 01:34:38;;;;;;;1.25;0.50;;;;;;;-0.42;48.58;102020.00;4918234;29;20407;-90
2024/01/13 01:37:14;;;;;;;0.40;0.30;;;;;;;-0.49;48.92;102020.31;4917655;29;21018;-91
2024/01/13 01:39:45;;;;;;;0.20;0.20;;;;;;;-0.48;48.82;102024.63;4917626;29;20400;-90
2024/01/13 01:42:14;;;;;;;0.70;0.70;;;;;;;-0.57;49.06;102014.63;4917782;29;20475;-90
2024/01/13 01:44:44;;;;;;;1.40;0.98;;;;;;;-0.59;49.44;102017.28;4917040;29;20460;-91
2024/01/13 01:47:13;;;;;;;0.88;0.38;;;;;;;-0.65;49.18;102028.81;4919240;29;20423;-91
2024/01/13 01:49:54;;;;;;;0.32;0.22;;;;;;;-0.71;49.47;102034.25;4917544;29;20400;-90
2024/01/13 01:52:19;;;;;;;0.30;0.30;;;;;;;-0.72;49.65;102018.69;4900028;29;20401;-90
2024/01/13 01:54:48;;;;;;;0.40;0.30;;;;;;;-0.61;49.30;102026.94;4915273;29;20408;-90
2024/01/13 01:57:16;;;;;;;0.60;0.60;;;;;;;-0.54;49.17;102027.50;4914978;29;21024;-89
2024/01/13 01:59:49;;;;;;;0.55;0.32;;;;;;;-0.42;49.28;102026.97;4914789;29;20421;-89
2024/01/13 02:02:19;;;;;;;0.60;0.45;;;;;;;-0.40;48.98;102026.00;4914759;29;20428;-89
2024/01/13 02:04:51;;;;;;;0.70;0.70;;;;;;;-0.48;48.83;102014.22;4914607;29;20413;-90
2024/01/13 02:07:21;;;;;;;1.80;1.00;;;;;;;-0.33;48.99;102017.91;4899191;29;20472;-89
2024/01/13 02:09:54;;;;;;;0.20;0.20;;;;;;;-0.46;49.34;102018.44;4914652;29;20412;-89
2024/01/13 02:12:22;;;;;;;0.70;0.63;;;;;;;-0.53;49.37;102014.41;4914463;29;20401;-89
2024/01/13 02:14:52;;;;;;;2.47;1.52;;;;;;;-0.64;49.63;102012.25;4897896;29;20408;-89
2024/01/13 02:17:23;;;;;;;2.13;1.33;;;;;;;-0.81;50.15;102012.13;4896967;29;20404;-90
2024/01/13 02:19:59;;;;;;;0.85;0.30;;;;;;;-0.82;50.41;102006.06;4913645;29;20389;-90
2024/01/13 02:22:27;;;;;;;0.77;0.65;;;;;;;-0.65;50.36;102014.94;4914511;29;20423;-90
2024/01/13 02:25:01;;;;;;;1.73;1.17;;;;;;;-0.75;50.36;102014.47;4914170;29;20824;-91
2024/01/13 02:27:34;;;;;;;0.60;0.57;;;;;;;-0.53;50.10;102011.81;4914689;29;20923;-90
2024/01/13 02:30:05;;;;;;;0.70;0.30;;;;;;;-0.59;50.05;102001.66;4917645;29;21200;-92
2024/01/13 02:32:39;;;;;;;0.70;0.50;;;;;;;-0.45;50.53;102004.50;4915980;29;20393;-91
2024/01/13 02:35:10;;;;;;;1.48;0.90;;;;;;;-0.37;49.96;102000.72;4936925;29;20431;-90
2024/01/13 02:37:38;;;;;;;0.65;0.40;;;;;;;-0.42;50.09;102000.91;4939822;29;20396;-88
2024/01/13 02:40:13;;;;;;;0.63;0.60;;;;;;;-0.30;50.13;101989.97;4924341;29;20412;-90
2024/01/13 02:42:43;;;;;;;1.00;0.80;;;;;;;-0.26;49.88;101994.09;4916269;29;20476;-91
2024/01/13 02:45:17;;;;;;;0.80;0.50;;;;;;;-0.29;49.94;101986.44;4917131;29;20448;-90
2024/01/13 02:47:56;;;;;;;1.27;0.70;;;;;;;-0.27;50.25;101995.03;4916187;29;20436;-90
2024/01/13 02:50:30;;;;;;;0.98;0.85;;;;;;;-0.18;50.26;101995.53;4916499;29;20515;-90
2024/01/13 02:52:58;;;;;;;0.47;0.30;;;;;;;-0.35;50.14;101988.47;4919850;29;20401;-89
2024/01/13 02:55:26;;;;;;;0.93;0.88;;;;;;;-0.21;50.18;101989.53;4935137;29;20393;-90
2024/01/13 02:57:56;;;;;;;1.40;1.25;;;;;;;-0.21;50.23;101988.72;4940280;29;20412;-89
2024/01/13 03:00:22;;;;;;;0.55;0.30;;;;;;;-0.28;50.36;101989.91;4924605;29;20468;-90
2024/01/13 03:02:50;;;;;;;0.90;0.30;;;;;;;-0.27;50.46;101996.78;4918039;29;20420;-91
2024/01/13 03:05:19;;;;;;;1.35;1.25;;;;;;;-0.33;50.27;101986.66;4916640;29;20913;-92
2024/01/13 03:07:47;;;;;;;1.10;0.95;;;;;;;-0.30;50.27;101981.31;4917194;29;20459;-91
2024/01/13 03:10:29;;;;;;;0.80;0.50;;;;;;;-0.28;50.29;101984.69;4915714;29;20427;-92
2024/01/13 03:12:56;;;;;;;1.30;0.80;;;;;;;-0.28;50.61;101993.34;4914422;29;20396;-91
2024/01/13 03:15:25;;;;;;;1.17;0.60;;;;;;;0.00;50.14;101992.13;4915834;29;20430;-90
2024/01/13 03:17:53;;;;;;;1.17;0.93;;;;;;;0.03;49.81;101997.16;4918703;29;20500;-90
2024/01/13 03:20:27;;;;;;;1.90;1.02;;;;;;;0.12;49.77;101993.28;4916244;29;20400;-89
2024/01/13 03:22:57;;;;;;;2.63;2.33;;;;;;;0.07;50.30;101990.88;4914313;29;20809;-92
2024/01/13 03:25:26;;;;;;;0.90;0.70;;;;;;;0.13;49.81;101981.97;4915792;29;20998;-92
2024/01/13 03:27:52;;;;;;;0.60;0.40;;;;;;;0.22;49.72;101973.72;4915568;29;20445;-91
2024/01/13 03:30:22;;;;;;;1.55;0.63;;;;;;;0.32;49.88;101958.47;4914953;29;20392;-92
2024/01/13 03:32:56;;;;;;;1.37;0.90;;;;;;;0.40;49.37;101964.16;4914947;29;20419;-91
2024/01/13 03:35:24;;;;;;;2.10;2.00;;;;;;;0.36;49.29;101957.38;4914917;29;20435;-90
2024/01/13 03:37:55;;;;;;;1.10;0.75;;;;;;;0.24;49.48;101958.00;4914637;29;20397;-91
2024/01/13 03:40:28;;;;;;;2.50;2.08;;;;;;;0.24;49.57;101942.34;4915093;29;20464;-91
2024/01/13 03:43:01;;;;;;;1.25;1.10;;;;;;;0.28;49.92;101931.69;4915165;29;20484;-92
2024/01/13 03:45:32;;;;;;;0.95;0.82;;;;;;;0.12;49.84;101928.94;4915138;29;20392;-92
2024/01/13 03:48:03;;;;;;;1.63;1.50;;;;;;;0.17;50.22;101931.34;4915114;29;20417;-91
2024/01/13 03:50:31;;;;;;;1.10;0.60;;;;;;;0.21;50.04;101929.44;4916073;29;20400;-92
2024/01/13 03:52:57;;;;;;;1.10;0.80;;;;;;;0.14;50.70;101923.66;4914578;29;20401;-91
2024/01/13 03:55:22;;;;;;;1.30;1.20;;;;;;;0.17;50.34;101924.38;4914914;29;20396;-91
2024/01/13 03:57:50;;;;;;;0.63;0.63;;;;;;;0.18;50.53;101920.84;4914467;29;20393;-91
2024/01/13 04:00:19;;;;;;;1.35;0.43;;;;;;;0.25;50.16;101904.91;4914134;29;20429;-90
2024/01/13 04:02:47;;;;;;;1.35;1.08;;;;;;;0.37;50.57;101918.19;4913627;29;20507;-90
2024/01/13 04:05:18;;;;;;;2.20;0.80;;;;;;;0.38;50.40;101919.06;4914265;29;20401;-91
2024/01/13 04:07:43;;;;;;;1.52;0.82;;;;;;;0.43;50.27;101924.03;4913508;29;20895;-91
2024/01/13 04:10:14;;;;;;;0.65;0.65;;;;;;;0.25;50.57;101917.94;4913933;29;20397;-91
2024/01/13 04:12:43;;;;;;;0.80;0.50;;;;;;;0.32;50.18;101914.97;4913955;29;20401;-91
2024/01/13 04:15:16;;;;;;;1.30;1.30;;;;;;;0.36;50.46;101910.44;4915150;29;20502;-90
2024/01/13 04:17:47;;;;;;;0.90;0.60;;;;;;;0.49;50.72;101919.38;4917362;29;20484;-90
2024/01/13 04:20:15;;;;;;;0.57;0.30;;;;;;;0.59;50.31;101924.97;4915041;29;20399;-91
2024/01/13 04:22:44;;;;;;;4.07;2.33;;;;;;;0.38;50.20;101912.06;4914996;29;20421;-93
2024/01/13 04:25:17;;;;;;;0.63;0.50;;;;;;;0.36;50.04;101916.53;4914334;29;20399;-92
2024/01/13 04:27:56;;;;;;;;;;;;;;;;;;;;;
2024/01/13 04:30:44;;;;;;;1.30;0.60;;;;;;;0.54;50.02;101925.22;4913299;29;20435;-91
2024/01/13 04:33:17;;;;;;;1.08;0.88;;;;;;;0.43;50.19;101922.25;4914251;29;20773;-89
2024/01/13 04:35:47;;;;;;;1.27;1.05;;;;;;;0.40;50.18;101921.56;4916018;29;20409;-90
2024/01/13 04:38:21;;;;;;;2.05;0.80;;;;;;;0.53;50.22;101928.72;4928475;29;20441;-89
2024/01/13 04:40:49;;;;;;;0.73;0.70;;;;;;;0.52;49.97;101919.25;4934656;29;20456;-89
2024/01/13 04:43:21;;;;;;;2.85;1.70;;;;;;;0.60;49.92;101924.06;4930634;29;20400;-89
2024/01/13 04:45:46;;;;;;;2.38;2.17;;;;;;;0.64;50.19;101916.94;4914603;29;20409;-90
2024/01/13 04:48:15;;;;;;;1.33;0.47;;;;;;;0.57;49.91;101932.03;4914595;29;20404;-90
2024/01/13 04:50:44;;;;;;;0.95;0.55;;;;;;;0.42;50.42;101918.00;4915567;29;20401;-90
2024/01/13 04:53:12;;;;;;;1.90;1.70;;;;;;;0.32;50.66;101921.94;4916802;29;20632;-90
2024/01/13 04:55:50;;;;;;;1.88;0.93;;;;;;;0.22;50.43;101913.72;4916175;29;20892;-90
2024/01/13 04:58:16;;;;;;;1.73;0.90;;;;;;;0.02;50.71;101914.69;4927208;29;20589;-90
2024/01/13 05:00:42;;;;;;;0.90;0.50;;;;;;;0.05;51.09;101916.28;4935138;29;20412;-91
2024/01/13 05:03:13;;;;;;;1.00;0.63;;;;;;;0.09;50.81;101913.47;4924950;29;20421;-90
2024/01/13 05:05:44;;;;;;;1.17;0.68;;;;;;;0.02;50.64;101914.69;4913951;29;20788;-89
2024/01/13 05:08:15;;;;;;;0.70;0.50;;;;;;;-0.09;51.04;101923.00;4913435;29;20405;-93
2024/01/13 05:10:46;;;;;;;1.20;0.60;;;;;;;0.02;50.84;101917.28;4915346;29;20408;-91
2024/01/13 05:13:20;;;;;;;1.63;1.10;;;;;;;0.02;51.33;101927.72;4917344;29;20924;-91
2024/01/13 05:15:48;;;;;;;2.25;1.50;;;;;;;0.09;50.55;101926.50;4917154;29;20503;-92
2024/01/13 05:18:19;;;;;;;1.50;1.40;;;;;;;0.03;50.53;101923.34;4918177;29;20396;-93
2024/01/13 05:20:45;;;;;;;2.20;1.70;;;;;;;-0.09;50.62;101925.59;4918474;29;20969;-93
2024/01/13 05:23:10;;;;;;;4.93;3.10;;;;;;;-0.12;50.64;101915.31;4917813;29;20476;-92
2024/01/13 05:25:39;;;;;;;0.93;0.60;;;;;;;-0.15;50.72;101920.66;4917870;29;20780;-92
2024/01/13 05:28:18;;;;;;;1.50;1.13;;;;;;;-0.05;50.63;101918.50;4917889;29;20404;-91
2024/01/13 05:30:50;;;;;;;1.10;0.80;;;;;;;0.07;50.60;101920.50;4917367;29;20443;-92
2024/01/13 05:33:26;;;;;;;1.05;1.05;;;;;;;0.02;50.42;101921.63;4917677;29;20471;-91
2024/01/13 05:35:59;;;;;;;1.02;0.77;;;;;;;-0.03;50.65;101916.66;4918043;29;20420;-92
2024/01/13 05:38:31;;;;;;;1.33;0.73;;;;;;;-0.05;50.65;101945.41;4918179;29;20401;-92
2024/01/13 05:41:02;;;;;;;2.35;1.80;;;;;;;0.01;50.54;101944.25;4917461;29;20401;-91
2024/01/13 05:43:30;;;;;;;1.00;0.90;;;;;;;0.06;50.22;101933.63;4917512;29;20399;-92
2024/01/13 05:46:02;;;;;;;1.40;0.50;;;;;;;0.01;49.91;101933.84;4919437;29;20935;-92
2024/01/13 05:48:33;;;;;;;3.08;1.73;;;;;;;-0.06;50.45;101932.44;4917802;29;20396;-90
2024/01/13 05:51:04;;;;;;;1.13;0.70;;;;;;;-0.24;50.83;101928.91;4917775;29;20780;-89
2024/01/13 05:53:37;;;;;;;1.88;0.75;;;;;;;-0.20;50.74;101941.75;4918039;29;20749;-90
2024/01/13 05:56:13;;;;;;;2.08;1.63;;;;;;;-0.08;50.62;101935.09;4917903;29;20979;-91
2024/01/13 05:58:42;;;;;;;1.42;0.60;;;;;;;-0.13;50.67;101931.03;4918363;29;20411;-91
2024/01/13 06:01:08;;;;;;;1.53;0.70;;;;;;;-0.07;50.60;101928.16;4918311;29;20497;-90
2024/01/13 06:03:40;;;;;;;1.77;1.67;;;;;;;0.02;50.30;101930.31;4916362;29;20483;-91
2024/01/13 06:06:17;;;;;;;0.60;0.60;;;;;;;0.00;50.64;101932.16;4916044;29;20495;-91
2024/01/13 06:08:47;;;;;;;1.58;0.57;;;;;;;0.05;50.30;101929.31;4916028;29;20408;-92
2024/01/13 06:11:15;;;;;;;1.60;1.20;;;;;;;0.20;50.28;101936.44;4915463;29;20857;-90
2024/01/13 06:13:40;;;;;;;1.15;0.73;;;;;;;0.14;50.62;101937.53;4917377;29;20444;-89
2024/01/13 06:16:08;;;;;;;0.73;0.60;;;;;;;0.23;50.77;101945.88;4918785;29;20797;-90
2024/01/13 06:18:37;;;;;;;0.80;0.80;;;;;;;0.30;50.52;101932.44;4919363;29;20404;-90
2024/01/13 06:21:09;;;;;;;2.70;2.07;;;;;;;0.32;50.37;101942.81;4919721;29;20420;-95
2024/01/13 06:23:38;;;;;;;1.35;1.15;;;;;;;0.42;50.46;101933.63;4922493;29;20420;-94
2024/01/13 06:26:09;;;;;;;1.00;0.75;;;;;;;0.16;51.09;101946.16;4918951;29;20408;-94
2024/01/13 06:28:42;;;;;;;1.50;1.40;;;;;;;0.27;50.91;101936.97;4919362;29;20400;-90
2024/01/13 06:31:13;;;;;;;1.80;1.65;;;;;;;0.46;50.42;101950.81;4921272;29;20432;-92
2024/01/13 06:36:29;;;;;;;1.52;1.38;;;;;;;0.58;50.38;101946.78;4927417;23;21005;-91
2024/01/13 06:38:57;;;;;;;1.05;0.73;;;;;;;0.59;50.33;101939.78;4918711;29;20429;-90
2024/01/13 06:41:32;;;;;;;0.40;0.40;;;;;;;0.70;49.97;101933.16;4917309;29;20420;-90
2024/01/13 06:44:01;;;;;;;0.80;0.60;;;;;;;0.68;49.91;101945.41;4916602;29;20394;-90
2024/01/13 06:46:26;;;;;;;1.00;1.00;;;;;;;0.66;50.30;101935.97;4916851;29;20396;-89
2024/01/13 06:48:52;;;;;;;1.50;1.30;;;;;;;0.59;50.54;101938.03;4914102;29;20817;-89
2024/01/13 06:51:20;;;;;;;1.10;0.70;;;;;;;0.71;50.43;101934.81;4913146;29;20928;-88
2024/01/13 06:53:49;;;;;;;1.50;1.17;;;;;;;0.86;50.37;101927.97;4913610;29;21012;-89
2024/01/13 06:56:17;;;;;;;1.30;0.60;;;;;;;1.10;50.21;101944.19;4913653;29;20478;-90
2024/01/13 06:58:53;;;;;;;3.95;2.90;;;;;;;1.16;50.55;101942.19;4915226;29;20449;-91
2024/01/13 07:01:19;;;;;;;3.72;1.60;;;;;;;1.19;50.11;101936.78;4917186;29;20412;-90
2024/01/13 07:03:52;;;;;;;0.47;0.43;;;;;;;1.10;50.18;101930.28;4917973;29;20408;-91
2024/01/13 07:06:23;;;;;;;1.33;1.23;;;;;;;1.09;50.08;101932.03;4906796;29;20407;-89
2024/01/13 07:08:54;;;;;;;2.60;2.35;;;;;;;1.18;51.13;101945.56;4906651;29;20398;-89
2024/01/13 07:11:27;;;;;;;1.35;1.25;;;;;;;1.27;50.38;101935.47;4905645;29;20913;-89
2024/01/13 07:14:02;;;;;;;5.82;2.97;;;;;;;1.43;50.46;101943.38;4929298;29;20402;-89
2024/01/13 07:16:34;;;;;;;0.90;0.63;;;;;;;1.52;50.18;101948.09;4932776;29;20419;-87
2024/01/13 07:19:02;;;;;;;1.90;1.65;;;;;;;1.51;50.03;101941.22;4908043;29;20422;-90
2024/01/13 07:21:30;;;;;;;1.63;1.53;;;;;;;1.63;50.01;101944.91;4899643;29;20414;-90
2024/01/13 07:23:58;;;;;;;1.02;1.02;;;;;;;1.69;49.84;101941.13;4898489;29;20437;-89
2024/01/13 07:26:29;;;;;;;2.00;1.23;;;;;;;1.61;49.93;101938.94;4929254;29;20401;-89
2024/01/13 07:28:55;;;;;;;1.38;1.10;;;;;;;1.65;50.18;101942.22;4929121;29;20413;-89
2024/01/13 07:31:25;;;;;;;5.70;1.85;;;;;;;1.68;49.93;101934.22;4897366;29;20395;-89
2024/01/13 07:33:55;;;;;;;3.00;1.25;;;;;;;1.58;50.48;101933.84;4897909;29;20944;-89
2024/01/13 07:36:24;;;;;;;2.10;1.63;;;;;;;1.51;50.41;101929.88;4916047;29;20433;-88
2024/01/13 07:38:52;;;;;;;1.70;0.50;;;;;;;1.51;51.16;101922.91;4898636;29;20878;-89
2024/01/13 07:41:20;;;;;;;0.85;0.73;;;;;;;1.61;50.64;101928.47;4926848;29;20415;-88
2024/01/13 07:43:54;;;;;;;2.50;1.90;;;;;;;1.60;50.69;101939.00;4926096;29;20406;-89
2024/01/13 07:46:25;;;;;;;0.60;0.60;;;;;;;1.72;50.37;101927.91;4927937;29;20421;-87
2024/01/13 07:48:56;;;;;;;2.55;1.95;;;;;;;1.84;51.15;101929.03;4897263;29;20406;-88
2024/01/13 07:51:27;;;;;;;0.95;0.80;;;;;;;1.81;50.81;101918.72;4896112;29;20882;-85
2024/01/13 07:53:58;;;;;;;0.80;0.80;;;;;;;1.88;50.52;101931.38;4926874;29;20402;-86
2024/01/13 07:56:27;;;;;;;0.60;0.60;;;;;;;1.93;50.79;101925.91;4895171;29;21019;-84
2024/01/13 07:58:55;;;;;;;1.42;0.93;;;;;;;1.89;50.82;101925.22;4926830;29;20518;-85
2024/01/13 08:01:21;;;;;;;2.45;1.05;;;;;;;1.98;50.73;101910.81;4892846;29;20449;-86
2024/01/13 08:03:51;;;;;;;0.95;0.80;;;;;;;2.25;50.51;101920.63;4892913;29;20513;-86
2024/01/13 08:06:19;;;;;;;1.17;0.82;;;;;;;2.18;50.35;101906.22;4892593;29;20406;-86
2024/01/13 08:08:48;;;;;;;1.88;1.38;;;;;;;2.31;50.06;101906.41;4924174;29;20407;-88
2024/01/13 08:11:16;;;;;;;1.50;1.13;;;;;;;2.43;50.37;101892.59;4900378;29;20401;-85
2024/01/13 08:13:45;;;;;;;0.80;0.80;;;;;;;2.55;50.44;101906.75;4911228;29;20424;-85
2024/01/13 08:16:19;;;;;;;1.70;0.60;;;;;;;2.60;50.56;101902.94;4901811;29;20402;-84
2024/01/13 08:18:51;;;;;;;1.63;1.30;;;;;;;2.67;49.91;101909.50;4909679;29;20397;-85
2024/01/13 08:21:19;;;;;;;1.92;0.80;;;;;;;2.77;50.00;101901.13;4904982;29;20445;-87
2024/01/13 08:23:48;;;;;;;1.65;1.20;;;;;;;2.73;49.68;101897.84;4920313;29;20392;-88
2024/01/13 08:26:18;;;;;;;1.48;1.38;;;;;;;2.78;49.89;101919.34;4903128;29;20393;-87
2024/01/13 08:28:44;;;;;;;0.97;0.87;;;;;;;2.65;49.93;101910.53;4912331;29;20403;-88
2024/01/13 08:31:14;;;;;;;2.00;1.03;;;;;;;2.71;50.59;101910.16;4906404;29;20485;-88
2024/01/13 08:33:40;;;;;;;3.53;1.73;;;;;;;2.77;50.15;101894.09;4906904;29;20774;-89
2024/01/13 08:36:08;;;;;;;2.23;0.77;;;;;;;2.82;49.60;101905.13;4905265;29;20431;-88
2024/01/13 08:38:34;;;;;;;2.17;1.10;;;;;;;2.77;49.62;101911.59;4903775;29;20402;-85
2024/01/13 08:41:06;;;;;;;1.83;0.85;;;;;;;2.70;50.08;101911.09;4913233;29;20984;-87
2024/01/13 08:43:34;;;;;;;1.98;1.55;;;;;;;2.91;49.69;101905.53;4910121;29;20989;-90
2024/01/13 08:46:03;;;;;;;1.27;0.70;;;;;;;2.74;50.46;101906.53;4916921;29;20424;-87
2024/01/13 08:48:31;;;;;;;2.33;1.70;;;;;;;2.85;50.00;101902.34;4907605;29;20414;-88
2024/01/13 08:50:59;;;;;;;0.95;0.52;;;;;;;2.73;49.38;101917.94;4915536;29;20911;-86
2024/01/13 08:53:33;;;;;;;1.10;1.00;;;;;;;2.82;49.70;101909.53;4917804;29;20400;-87
2024/01/13 08:56:02;;;;;;;0.50;0.27;;;;;;;2.75;49.51;101903.81;4918336;29;20408;-87
2024/01/13 08:58:39;;;;;;;1.98;1.20;;;;;;;2.95;49.11;101897.41;4902685;29;20501;-86
2024/01/13 09:01:16;;;;;;;1.10;0.60;;;;;;;3.14;49.29;101899.78;4911529;29;20409;-87
2024/01/13 09:03:46;;;;;;;0.73;0.73;;;;;;;3.18;48.84;101889.94;4912161;29;20757;-87
2024/01/13 09:06:12;;;;;;;1.85;1.45;;;;;;;3.24;49.22;101895.69;4913998;29;20487;-86
2024/01/13 09:08:38;;;;;;;1.33;1.00;;;;;;;3.14;48.92;101888.47;4914677;29;20479;-86
2024/01/13 09:11:10;;;;;;;2.85;1.83;;;;;;;3.16;49.00;101887.41;4912888;29;21136;-83
2024/01/13 09:13:39;;;;;;;2.17;1.47;;;;;;;3.33;49.15;101875.94;4904735;29;20401;-86
2024/01/13 09:16:07;;;;;;;4.05;2.10;;;;;;;3.33;48.30;101877.69;4914156;29;20407;-86
2024/01/13 09:18:35;;;;;;;2.20;0.75;;;;;;;3.09;49.07;101873.00;4918471;29;20397;-83
2024/01/13 09:21:01;;;;;;;1.97;1.20;;;;;;;3.25;48.77;101871.13;4926406;29;20416;-83
2024/01/13 09:23:30;;;;;;;2.70;2.17;;;;;;;3.48;48.84;101870.69;4905750;29;20406;-86
2024/01/13 09:25:55;;;;;;;2.65;1.30;;;;;;;3.31;48.83;101869.91;4912704;29;20398;-86
2024/01/13 09:28:33;;;;;;;2.22;1.08;;;;;;;3.31;48.06;101843.69;4897831;29;20406;-85
2024/01/13 09:31:02;;;;;;;1.90;1.15;;;;;;;3.36;49.86;101849.50;4895080;29;20393;-86
2024/01/13 09:33:30;;;;;;;0.60;0.60;;;;;;;3.48;48.47;101849.72;4912134;29;20523;-86
2024/01/13 09:35:58;;;;;;;1.42;1.05;;;;;;;3.56;48.98;101840.41;4897374;29;20429;-86
2024/01/13 09:38:30;;;;;;;0.88;0.80;;;;;;;3.53;48.79;101834.50;4903236;29;20424;-82
2024/01/13 09:41:01;;;;;;;0.80;0.77;;;;;;;3.24;48.53;101831.91;4906722;29;20413;-84
2024/01/13 09:43:44;;;;;;;3.70;1.03;;;;;;;3.35;48.97;101828.63;4897197;29;20490;-86
2024/01/13 09:46:12;;;;;;;1.95;1.25;;;;;;;3.24;47.78;101842.41;4895251;29;20509;-84
2024/01/13 09:48:45;;;;;;;1.25;0.55;;;;;;;3.18;48.14;101835.75;4911078;29;20759;-84
2024/01/13 09:51:11;;;;;;;0.68;0.40;;;;;;;3.30;47.88;101828.94;4896893;29;20429;-84
2024/01/13 09:53:47;;;;;;;1.73;1.58;;;;;;;3.30;47.80;101831.56;4897996;29;20390;-84
2024/01/13 09:56:27;;;;;;;0.82;0.80;;;;;;;3.61;47.20;101812.13;4896248;29;20430;-84
2024/01/13 09:58:55;;;;;;;0.53;0.40;;;;;;;3.57;47.74;101813.25;4896712;29;20806;-83
2024/01/13 10:01:23;;;;;;;0.70;0.52;;;;;;;3.54;46.18;101813.44;4897430;29;20417;-88
2024/01/13 10:03:49;;;;;;;8.45;2.45;;;;;;;3.39;46.58;101802.16;4910746;29;20398;-86
2024/01/13 10:06:16;;;;;;;2.43;1.60;;;;;;;3.78;47.02;101807.56;4924217;29;20407;-90
2024/01/13 10:08:41;;;;;;;1.15;0.63;;;;;;;3.74;45.54;101791.19;4914008;29;20412;-89
2024/01/13 10:11:07;;;;;;;2.50;1.63;;;;;;;3.89;45.47;101807.75;4916134;29;20409;-90
2024/01/13 10:13:32;;;;;;;2.08;1.08;;;;;;;3.93;45.12;101797.88;4914991;29;20419;-89
2024/01/13 10:16:05;;;;;;;3.63;1.50;;;;;;;3.80;43.91;101787.34;4916147;29;20415;-91
2024/01/13 10:18:34;;;;;;;2.53;0.95;;;;;;;3.74;45.00;101811.34;4876807;29;20799;-90
2024/01/13 10:21:08;;;;;;;2.35;0.75;;;;;;;3.63;44.12;101799.75;4876379;29;20479;-91
2024/01/13 10:23:40;;;;;;;1.37;0.50;;;;;;;3.40;45.55;101795.13;4849695;29;20415;-92
2024/01/13 10:26:07;;;;;;;2.15;0.60;;;;;;;3.57;45.61;101815.03;4846019;29;21052;-93
2024/01/13 10:28:33;;;;;;;2.45;0.80;;;;;;;3.93;46.58;101801.34;4861190;29;20919;-92
2024/01/13 10:31:12;;;;;;;4.00;1.58;;;;;;;3.71;45.97;101801.91;4860615;29;20784;-92
2024/01/13 10:33:56;;;;;;;3.40;1.27;;;;;;;3.86;46.09;101809.72;4859604;29;20940;-92
2024/01/13 10:36:41;;;;;;;2.58;0.80;;;;;;;3.66;45.76;101788.22;4848535;29;20430;-95
2024/01/13 10:41:57;;;;;;;30.08;5.10;;;;;;;3.83;46.42;101805.50;4932019;23;20414;-94
2024/01/13 10:44:43;;;;;;;2.90;0.90;;;;;;;4.06;46.03;101803.16;4867998;29;20461;-95
2024/01/13 10:47:31;;;;;;;2.22;0.93;;;;;;;3.91;45.46;101813.72;4849924;29;20537;-95
2024/01/13 10:50:15;;;;;;;3.22;0.95;;;;;;;3.35;46.15;101807.66;4867117;29;20422;-94
2024/01/13 10:53:38;;;;;;;3.92;1.23;;;;;;;3.55;46.31;101811.69;4851131;29;20413;-93
2024/01/13 10:56:30;;;;;;;0.95;0.50;;;;;;;3.56;46.78;101801.06;4810775;29;20403;-94
2024/01/13 10:59:38;;;;;;;1.20;0.68;;;;;;;3.20;46.65;101793.75;4873916;29;20494;-94
2024/01/13 11:02:13;;;;;;;1.95;1.10;;;;;;;3.27;47.05;101796.84;4850597;29;20423;-93
2024/01/13 11:04:59;;;;;;;4.40;1.30;;;;;;;3.29;46.66;101801.03;4815971;29;20422;-92
2024/01/13 11:07:52;;;;;;;2.33;1.00;;;;;;;3.31;46.36;101788.66;4814336;29;20481;-92
2024/01/13 11:10:43;;;;;;;4.90;1.00;;;;;;;3.46;46.42;101794.75;4816393;29;20536;-91
2024/01/13 11:13:36;;;;;;;3.45;0.80;;;;;;;3.42;46.24;101788.00;4828443;29;20437;-91
2024/01/13 11:16:06;;;;;;;2.42;1.40;;;;;;;3.33;46.50;101794.69;4803336;29;20417;-88
2024/01/13 11:18:58;;;;;;;1.10;0.68;;;;;;;3.36;46.13;101783.16;4826350;29;20425;-88
2024/01/13 11:21:33;;;;;;;2.72;1.75;;;;;;;3.51;45.98;101792.69;4814814;29;20410;-90
2024/01/13 11:24:09;;;;;;;3.08;1.83;;;;;;;3.32;46.06;101786.91;4824658;29;20442;-93
2024/01/13 11:26:41;;;;;;;1.75;0.90;;;;;;;3.12;46.17;101775.91;4810740;29;20425;-88
2024/01/13 11:29:42;;;;;;;3.25;1.40;;;;;;;2.86;46.70;101772.25;4814615;29;20468;-87
2024/01/13 11:32:08;;;;;;;2.30;1.17;;;;;;;3.12;46.89;101764.59;4817248;29;20413;-86
2024/01/13 11:34:36;;;;;;;7.80;1.38;;;;;;;3.16;46.25;101761.66;4806790;29;21023;-91
2024/01/13 11:37:13;;;;;;;;;;;;;;;;;;;;;
2024/01/13 11:39:46;;;;;;;2.38;1.02;;;;;;;3.24;46.21;101777.75;4806168;29;20402;-90
2024/01/13 11:42:12;;;;;;;2.13;1.52;;;;;;;3.59;46.48;101769.41;4939926;23;20472;-85
2024/01/13 11:44:59;;;;;;;2.53;1.15;;;;;;;3.69;46.29;101748.72;4882005;29;20396;-88
2024/01/13 11:47:29;;;;;;;1.63;0.77;;;;;;;3.45;46.33;101738.00;4871729;29;20799;-87
2024/01/13 11:49:55;;;;;;;1.83;1.17;;;;;;;3.57;47.34;101731.97;4873433;29;20412;-85
2024/01/13 11:52:31;;;;;;;1.17;0.88;;;;;;;3.59;46.27;101729.25;4865509;29;20402;-86
2024/01/13 11:54:58;;;;;;;1.75;1.30;;;;;;;3.72;46.00;101730.13;4872490;29;20398;-86
2024/01/13 11:57:24;;;;;;;1.90;1.13;;;;;;;3.54;46.47;101718.22;4873288;29;20772;-86